sensor_id;sensor_type;location;lat;lon;timestamp;P1;durP1;ratioP1;P2;durP2;ratioP2
43702;SDS011;29304;56.146;40.396;2022-07-12T00:00:05;10.48;;;8.68;;
43702;SDS011;29304;56.146;40.396;2022-07-12T00:00:17;10.15;;;8.10;;
43702;SDS011;29304;56.146;40.396;2022-07-12T00:00:27;9.10;;;8.13;;
43702;SDS011;29304;56.146;40.396;2022-07-12T00:00:38;9.20;;;8.20;;
43702;SDS011;29304;56.146;40.396;2022-07-12T00:00:48;9.37;;;8.43;;
43702;SDS011;29304;56.146;40.396;2022-07-12T00:00:59;9.32;;;8.43;;
43702;SDS011;29304;56.146;40.396;2022-07-12T00:01:09;9.60;;;8.60;;
43702;SDS011;29304;56.146;40.396;2022-07-12T00:01:20;9.52;;;8.48;;
43702;SDS011;29304;56.146;40.396;2022-07-12T00:01:31;10.95;;;8.50;;
43702;SDS011;29304;56.146;40.396;2022-07-12T00:01:41;10.23;;;8.53;;
43702;SDS011;29304;56.146;40.396;2022-07-12T00:01:52;9.98;;;8.55;;
43702;SDS011;29304;56.146;40.396;2022-07-12T00:02:03;9.75;;;8.75;;
43702;SDS011;29304;56.146;40.396;2022-07-12T00:02:14;9.63;;;8.63;;
43702;SDS011;29304;56.146;40.396;2022-07-12T00:02:24;9.70;;;8.70;;
43702;SDS011;29304;56.146;40.396;2022-07-12T00:02:35;9.68;;;8.77;;
43702;SDS011;29304;56.146;40.396;2022-07-12T00:02:45;9.90;;;8.90;;
43702;SDS011;29304;56.146;40.396;2022-07-12T00:02:56;9.95;;;8.90;;
43702;SDS011;29304;56.146;40.396;2022-07-12T00:03:06;10.63;;;8.60;;
43702;SDS011;29304;56.146;40.396;2022-07-12T00:03:17;11.45;;;8.60;;
43702;SDS011;29304;56.146;40.396;2022-07-12T00:03:27;10.73;;;8.43;;
43702;SDS011;29304;56.146;40.396;2022-07-12T00:03:38;10.23;;;8.50;;
43702;SDS011;29304;56.146;40.396;2022-07-12T00:03:48;9.63;;;8.70;;
43702;SDS011;29304;56.146;40.396;2022-07-12T00:03:59;10.07;;;9.07;;
43702;SDS011;29304;56.146;40.396;2022-07-12T00:04:09;11.27;;;9.35;;
43702;SDS011;29304;56.146;40.396;2022-07-12T00:04:20;12.10;;;9.53;;
43702;SDS011;29304;56.146;40.396;2022-07-12T00:04:30;13.00;;;9.73;;
43702;SDS011;29304;56.146;40.396;2022-07-12T00:04:40;12.60;;;9.60;;
43702;SDS011;29304;56.146;40.396;2022-07-12T00:04:51;10.67;;;9.30;;
43702;SDS011;29304;56.146;40.396;2022-07-12T00:05:01;10.43;;;9.40;;
43702;SDS011;29304;56.146;40.396;2022-07-12T00:05:12;10.38;;;9.38;;
43702;SDS011;29304;56.146;40.396;2022-07-12T00:05:22;10.77;;;9.60;;
43702;SDS011;29304;56.146;40.396;2022-07-12T00:05:33;10.55;;;9.02;;
43702;SDS011;29304;56.146;40.396;2022-07-12T00:05:43;9.90;;;8.63;;
43702;SDS011;29304;56.146;40.396;2022-07-12T00:05:54;9.80;;;8.75;;
43702;SDS011;29304;56.146;40.396;2022-07-12T00:06:04;10.23;;;9.10;;
43702;SDS011;29304;56.146;40.396;2022-07-12T00:06:15;10.50;;;9.40;;
43702;SDS011;29304;56.146;40.396;2022-07-12T00:06:25;10.57;;;9.50;;
43702;SDS011;29304;56.146;40.396;2022-07-12T00:06:36;10.60;;;9.60;;
43702;SDS011;29304;56.146;40.396;2022-07-12T00:06:46;10.43;;;9.48;;
43702;SDS011;29304;56.146;40.396;2022-07-12T00:06:56;9.87;;;9.03;;
43702;SDS011;29304;56.146;40.396;2022-07-12T00:07:07;9.88;;;8.98;;
43702;SDS011;29304;56.146;40.396;2022-07-12T00:07:17;9.93;;;9.00;;
43702;SDS011;29304;56.146;40.396;2022-07-12T00:07:28;10.90;;;9.25;;
43702;SDS011;29304;56.146;40.396;2022-07-12T00:07:38;10.67;;;9.23;;
43702;SDS011;29304;56.146;40.396;2022-07-12T00:07:49;12.05;;;9.38;;
43702;SDS011;29304;56.146;40.396;2022-07-12T00:07:59;11.57;;;9.57;;
43702;SDS011;29304;56.146;40.396;2022-07-12T00:08:10;14.30;;;9.95;;
43702;SDS011;29304;56.146;40.396;2022-07-12T00:08:20;14.13;;;10.20;;
43702;SDS011;29304;56.146;40.396;2022-07-12T00:08:30;15.20;;;10.10;;
43702;SDS011;29304;56.146;40.396;2022-07-12T00:08:41;13.07;;;9.77;;
43702;SDS011;29304;56.146;40.396;2022-07-12T00:08:51;14.27;;;9.47;;
43702;SDS011;29304;56.146;40.396;2022-07-12T00:09:02;13.07;;;9.40;;
43702;SDS011;29304;56.146;40.396;2022-07-12T00:09:12;11.25;;;9.23;;
43702;SDS011;29304;56.146;40.396;2022-07-12T00:09:23;10.30;;;9.37;;
43702;SDS011;29304;56.146;40.396;2022-07-12T00:09:33;10.75;;;9.63;;
43702;SDS011;29304;56.146;40.396;2022-07-12T00:09:44;12.30;;;9.83;;
43702;SDS011;29304;56.146;40.396;2022-07-12T00:09:54;14.18;;;10.05;;
43702;SDS011;29304;56.146;40.396;2022-07-12T00:10:05;13.97;;;9.97;;
43702;SDS011;29304;56.146;40.396;2022-07-12T00:10:15;12.20;;;9.95;;
43702;SDS011;29304;56.146;40.396;2022-07-12T00:10:26;11.03;;;9.93;;
43702;SDS011;29304;56.146;40.396;2022-07-12T00:10:36;11.52;;;10.38;;
43702;SDS011;29304;56.146;40.396;2022-07-12T00:10:47;13.73;;;10.40;;
43702;SDS011;29304;56.146;40.396;2022-07-12T00:10:57;15.13;;;10.20;;
43702;SDS011;29304;56.146;40.396;2022-07-12T00:11:08;13.53;;;9.80;;
43702;SDS011;29304;56.146;40.396;2022-07-12T00:11:19;11.70;;;9.88;;
43702;SDS011;29304;56.146;40.396;2022-07-12T00:11:29;12.10;;;9.60;;
43702;SDS011;29304;56.146;40.396;2022-07-12T00:11:40;15.27;;;9.38;;
43702;SDS011;29304;56.146;40.396;2022-07-12T00:11:51;13.82;;;9.20;;
43702;SDS011;29304;56.146;40.396;2022-07-12T00:12:02;12.13;;;9.13;;
43702;SDS011;29304;56.146;40.396;2022-07-12T00:12:13;11.90;;;9.77;;
43702;SDS011;29304;56.146;40.396;2022-07-12T00:12:24;13.07;;;9.90;;
43702;SDS011;29304;56.146;40.396;2022-07-12T00:12:34;12.70;;;9.82;;
43702;SDS011;29304;56.146;40.396;2022-07-12T00:12:44;10.73;;;9.67;;
43702;SDS011;29304;56.146;40.396;2022-07-12T00:12:55;10.52;;;9.48;;
43702;SDS011;29304;56.146;40.396;2022-07-12T00:13:05;10.70;;;9.27;;
43702;SDS011;29304;56.146;40.396;2022-07-12T00:13:16;10.75;;;9.10;;
43702;SDS011;29304;56.146;40.396;2022-07-12T00:13:27;11.20;;;9.20;;
43702;SDS011;29304;56.146;40.396;2022-07-12T00:13:37;11.90;;;9.40;;
43702;SDS011;29304;56.146;40.396;2022-07-12T00:13:48;12.10;;;9.73;;
43702;SDS011;29304;56.146;40.396;2022-07-12T00:13:58;13.43;;;9.80;;
43702;SDS011;29304;56.146;40.396;2022-07-12T00:14:09;12.07;;;9.45;;
43702;SDS011;29304;56.146;40.396;2022-07-12T00:14:22;11.73;;;9.10;;
43702;SDS011;29304;56.146;40.396;2022-07-12T00:14:33;10.02;;;9.00;;
43702;SDS011;29304;56.146;40.396;2022-07-12T00:14:43;10.23;;;9.23;;
43702;SDS011;29304;56.146;40.396;2022-07-12T00:14:53;10.65;;;9.63;;
43702;SDS011;29304;56.146;40.396;2022-07-12T00:15:04;10.70;;;9.60;;
43702;SDS011;29304;56.146;40.396;2022-07-12T00:15:15;11.52;;;9.57;;
43702;SDS011;29304;56.146;40.396;2022-07-12T00:15:26;13.13;;;9.80;;
43702;SDS011;29304;56.146;40.396;2022-07-12T00:15:36;13.20;;;9.80;;
43702;SDS011;29304;56.146;40.396;2022-07-12T00:15:47;11.82;;;9.85;;
43702;SDS011;29304;56.146;40.396;2022-07-12T00:15:57;10.50;;;9.50;;
43702;SDS011;29304;56.146;40.396;2022-07-12T00:16:08;11.03;;;10.00;;
43702;SDS011;29304;56.146;40.396;2022-07-12T00:16:18;11.20;;;10.13;;
43702;SDS011;29304;56.146;40.396;2022-07-12T00:16:29;11.47;;;10.37;;
43702;SDS011;29304;56.146;40.396;2022-07-12T00:16:39;11.93;;;10.10;;
43702;SDS011;29304;56.146;40.396;2022-07-12T00:16:49;13.10;;;10.23;;
43702;SDS011;29304;56.146;40.396;2022-07-12T00:17:01;13.65;;;10.25;;
43702;SDS011;29304;56.146;40.396;2022-07-12T00:17:14;11.95;;;10.13;;
43702;SDS011;29304;56.146;40.396;2022-07-12T00:17:24;11.82;;;10.10;;
43702;SDS011;29304;56.146;40.396;2022-07-12T00:17:35;13.93;;;10.07;;
43702;SDS011;29304;56.146;40.396;2022-07-12T00:17:45;15.05;;;10.32;;
43702;SDS011;29304;56.146;40.396;2022-07-12T00:17:56;15.83;;;10.20;;
43702;SDS011;29304;56.146;40.396;2022-07-12T00:18:06;15.73;;;10.60;;
43702;SDS011;29304;56.146;40.396;2022-07-12T00:18:17;13.57;;;10.30;;
43702;SDS011;29304;56.146;40.396;2022-07-12T00:18:27;11.77;;;10.50;;
43702;SDS011;29304;56.146;40.396;2022-07-12T00:18:38;11.18;;;10.00;;
43702;SDS011;29304;56.146;40.396;2022-07-12T00:18:48;12.47;;;10.10;;
43702;SDS011;29304;56.146;40.396;2022-07-12T00:18:59;13.82;;;9.93;;
43702;SDS011;29304;56.146;40.396;2022-07-12T00:19:09;12.60;;;10.03;;
43702;SDS011;29304;56.146;40.396;2022-07-12T00:19:20;11.95;;;10.00;;
43702;SDS011;29304;56.146;40.396;2022-07-12T00:19:30;12.17;;;10.10;;
43702;SDS011;29304;56.146;40.396;2022-07-12T00:19:41;14.15;;;10.38;;
43702;SDS011;29304;56.146;40.396;2022-07-12T00:19:51;13.20;;;10.50;;
43702;SDS011;29304;56.146;40.396;2022-07-12T00:20:02;13.05;;;10.45;;
43702;SDS011;29304;56.146;40.396;2022-07-12T00:20:12;12.23;;;10.07;;
43702;SDS011;29304;56.146;40.396;2022-07-12T00:20:23;13.07;;;10.02;;
43702;SDS011;29304;56.146;40.396;2022-07-12T00:20:33;11.73;;;10.07;;
43702;SDS011;29304;56.146;40.396;2022-07-12T00:20:44;11.40;;;10.20;;
43702;SDS011;29304;56.146;40.396;2022-07-12T00:20:55;10.93;;;9.82;;
43702;SDS011;29304;56.146;40.396;2022-07-12T00:21:05;10.83;;;9.63;;
43702;SDS011;29304;56.146;40.396;2022-07-12T00:21:17;12.18;;;9.80;;
43702;SDS011;29304;56.146;40.396;2022-07-12T00:21:27;11.93;;;9.83;;
43702;SDS011;29304;56.146;40.396;2022-07-12T00:21:38;11.38;;;9.98;;
43702;SDS011;29304;56.146;40.396;2022-07-12T00:21:48;10.90;;;9.80;;
43702;SDS011;29304;56.146;40.396;2022-07-12T00:21:59;11.27;;;10.07;;
43702;SDS011;29304;56.146;40.396;2022-07-12T00:22:09;11.63;;;9.80;;
43702;SDS011;29304;56.146;40.396;2022-07-12T00:22:19;12.10;;;9.85;;
43702;SDS011;29304;56.146;40.396;2022-07-12T00:22:30;13.17;;;9.97;;
43702;SDS011;29304;56.146;40.396;2022-07-12T00:22:40;14.15;;;10.40;;
43702;SDS011;29304;56.146;40.396;2022-07-12T00:22:51;14.10;;;10.80;;
43702;SDS011;29304;56.146;40.396;2022-07-12T00:23:01;12.50;;;10.80;;
43702;SDS011;29304;56.146;40.396;2022-07-12T00:23:12;11.70;;;10.57;;
43702;SDS011;29304;56.146;40.396;2022-07-12T00:23:23;11.30;;;10.20;;
43702;SDS011;29304;56.146;40.396;2022-07-12T00:23:34;11.40;;;10.20;;
43702;SDS011;29304;56.146;40.396;2022-07-12T00:23:44;11.65;;;10.45;;
43702;SDS011;29304;56.146;40.396;2022-07-12T00:23:55;11.80;;;10.63;;
43702;SDS011;29304;56.146;40.396;2022-07-12T00:24:05;11.85;;;10.63;;
43702;SDS011;29304;56.146;40.396;2022-07-12T00:24:16;12.27;;;10.30;;
43702;SDS011;29304;56.146;40.396;2022-07-12T00:24:26;11.67;;;10.17;;
43702;SDS011;29304;56.146;40.396;2022-07-12T00:24:37;13.10;;;10.23;;
43702;SDS011;29304;56.146;40.396;2022-07-12T00:24:47;13.33;;;10.50;;
43702;SDS011;29304;56.146;40.396;2022-07-12T00:24:58;12.65;;;10.55;;
43702;SDS011;29304;56.146;40.396;2022-07-12T00:25:09;14.27;;;10.67;;
43702;SDS011;29304;56.146;40.396;2022-07-12T00:25:19;14.13;;;10.70;;
43702;SDS011;29304;56.146;40.396;2022-07-12T00:25:30;15.13;;;10.83;;
43702;SDS011;29304;56.146;40.396;2022-07-12T00:25:40;11.97;;;10.27;;
43702;SDS011;29304;56.146;40.396;2022-07-12T00:25:51;11.48;;;10.27;;
43702;SDS011;29304;56.146;40.396;2022-07-12T00:26:01;11.27;;;10.20;;
43702;SDS011;29304;56.146;40.396;2022-07-12T00:26:14;11.52;;;10.30;;
43702;SDS011;29304;56.146;40.396;2022-07-12T00:26:24;12.80;;;10.90;;
43702;SDS011;29304;56.146;40.396;2022-07-12T00:26:35;12.52;;;11.23;;
43702;SDS011;29304;56.146;40.396;2022-07-12T00:26:45;12.27;;;11.13;;
43702;SDS011;29304;56.146;40.396;2022-07-12T00:26:56;12.23;;;10.95;;
43702;SDS011;29304;56.146;40.396;2022-07-12T00:27:06;13.00;;;10.97;;
43702;SDS011;29304;56.146;40.396;2022-07-12T00:27:17;13.88;;;11.00;;
43702;SDS011;29304;56.146;40.396;2022-07-12T00:27:27;12.53;;;10.67;;
43702;SDS011;29304;56.146;40.396;2022-07-12T00:27:39;12.50;;;10.77;;
43702;SDS011;29304;56.146;40.396;2022-07-12T00:27:50;12.35;;;10.70;;
43702;SDS011;29304;56.146;40.396;2022-07-12T00:28:00;12.37;;;10.83;;
43702;SDS011;29304;56.146;40.396;2022-07-12T00:28:11;12.38;;;10.90;;
43702;SDS011;29304;56.146;40.396;2022-07-12T00:28:21;11.82;;;10.55;;
43702;SDS011;29304;56.146;40.396;2022-07-12T00:28:32;11.77;;;10.37;;
43702;SDS011;29304;56.146;40.396;2022-07-12T00:28:43;11.50;;;10.23;;
43702;SDS011;29304;56.146;40.396;2022-07-12T00:28:54;11.63;;;10.32;;
43702;SDS011;29304;56.146;40.396;2022-07-12T00:29:05;11.50;;;10.40;;
43702;SDS011;29304;56.146;40.396;2022-07-12T00:29:16;11.13;;;10.02;;
43702;SDS011;29304;56.146;40.396;2022-07-12T00:29:26;11.20;;;10.05;;
43702;SDS011;29304;56.146;40.396;2022-07-12T00:29:37;11.10;;;9.97;;
43702;SDS011;29304;56.146;40.396;2022-07-12T00:29:47;11.60;;;10.50;;
43702;SDS011;29304;56.146;40.396;2022-07-12T00:29:58;11.53;;;10.50;;
43702;SDS011;29304;56.146;40.396;2022-07-12T00:30:08;11.43;;;10.43;;
43702;SDS011;29304;56.146;40.396;2022-07-12T00:30:19;11.30;;;10.30;;
43702;SDS011;29304;56.146;40.396;2022-07-12T00:30:29;11.70;;;10.57;;
43702;SDS011;29304;56.146;40.396;2022-07-12T00:30:40;11.77;;;10.57;;
43702;SDS011;29304;56.146;40.396;2022-07-12T00:30:51;12.02;;;10.50;;
43702;SDS011;29304;56.146;40.396;2022-07-12T00:31:01;11.50;;;10.32;;
43702;SDS011;29304;56.146;40.396;2022-07-12T00:31:13;13.07;;;10.50;;
43702;SDS011;29304;56.146;40.396;2022-07-12T00:31:24;13.43;;;10.53;;
43702;SDS011;29304;56.146;40.396;2022-07-12T00:31:34;13.15;;;10.75;;
43702;SDS011;29304;56.146;40.396;2022-07-12T00:31:45;11.53;;;10.40;;
43702;SDS011;29304;56.146;40.396;2022-07-12T00:31:55;11.43;;;10.30;;
43702;SDS011;29304;56.146;40.396;2022-07-12T00:32:05;11.53;;;10.33;;
43702;SDS011;29304;56.146;40.396;2022-07-12T00:32:17;11.68;;;10.48;;
43702;SDS011;29304;56.146;40.396;2022-07-12T00:32:28;11.48;;;10.32;;
43702;SDS011;29304;56.146;40.396;2022-07-12T00:32:38;11.77;;;10.60;;
43702;SDS011;29304;56.146;40.396;2022-07-12T00:32:49;12.27;;;10.85;;
43702;SDS011;29304;56.146;40.396;2022-07-12T00:32:59;12.33;;;11.00;;
43702;SDS011;29304;56.146;40.396;2022-07-12T00:33:10;12.30;;;11.02;;
43702;SDS011;29304;56.146;40.396;2022-07-12T00:33:20;12.23;;;10.90;;
43702;SDS011;29304;56.146;40.396;2022-07-12T00:33:30;14.17;;;10.77;;
43702;SDS011;29304;56.146;40.396;2022-07-12T00:33:41;14.68;;;10.68;;
43702;SDS011;29304;56.146;40.396;2022-07-12T00:33:51;15.13;;;10.53;;
43702;SDS011;29304;56.146;40.396;2022-07-12T00:34:02;13.27;;;10.25;;
43702;SDS011;29304;56.146;40.396;2022-07-12T00:34:12;11.80;;;9.93;;
43702;SDS011;29304;56.146;40.396;2022-07-12T00:34:23;11.68;;;10.10;;
43702;SDS011;29304;56.146;40.396;2022-07-12T00:34:33;12.67;;;10.57;;
43702;SDS011;29304;56.146;40.396;2022-07-12T00:34:43;11.95;;;10.73;;
43702;SDS011;29304;56.146;40.396;2022-07-12T00:34:54;11.60;;;10.53;;
43702;SDS011;29304;56.146;40.396;2022-07-12T00:35:05;11.20;;;10.13;;
43702;SDS011;29304;56.146;40.396;2022-07-12T00:35:16;11.80;;;9.88;;
43702;SDS011;29304;56.146;40.396;2022-07-12T00:35:27;11.35;;;10.00;;
43702;SDS011;29304;56.146;40.396;2022-07-12T00:35:37;11.30;;;10.13;;
43702;SDS011;29304;56.146;40.396;2022-07-12T00:35:48;11.25;;;10.15;;
43702;SDS011;29304;56.146;40.396;2022-07-12T00:35:58;11.27;;;10.17;;
43702;SDS011;29304;56.146;40.396;2022-07-12T00:36:08;11.90;;;10.65;;
43702;SDS011;29304;56.146;40.396;2022-07-12T00:36:19;11.85;;;10.60;;
43702;SDS011;29304;56.146;40.396;2022-07-12T00:36:30;12.67;;;10.73;;
43702;SDS011;29304;56.146;40.396;2022-07-12T00:36:40;12.88;;;10.50;;
43702;SDS011;29304;56.146;40.396;2022-07-12T00:36:51;13.53;;;10.63;;
43702;SDS011;29304;56.146;40.396;2022-07-12T00:37:01;14.30;;;10.73;;
43702;SDS011;29304;56.146;40.396;2022-07-12T00:37:12;14.90;;;10.93;;
43702;SDS011;29304;56.146;40.396;2022-07-12T00:37:22;14.10;;;11.00;;
43702;SDS011;29304;56.146;40.396;2022-07-12T00:37:33;13.23;;;10.87;;
43702;SDS011;29304;56.146;40.396;2022-07-12T00:37:43;12.48;;;11.18;;
43702;SDS011;29304;56.146;40.396;2022-07-12T00:37:54;12.27;;;10.97;;
43702;SDS011;29304;56.146;40.396;2022-07-12T00:38:04;12.07;;;10.93;;
43702;SDS011;29304;56.146;40.396;2022-07-12T00:38:15;12.10;;;10.90;;
43702;SDS011;29304;56.146;40.396;2022-07-12T00:38:25;12.57;;;11.13;;
43702;SDS011;29304;56.146;40.396;2022-07-12T00:38:36;13.63;;;11.03;;
43702;SDS011;29304;56.146;40.396;2022-07-12T00:38:46;14.27;;;11.00;;
43702;SDS011;29304;56.146;40.396;2022-07-12T00:38:57;12.65;;;11.05;;
43702;SDS011;29304;56.146;40.396;2022-07-12T00:39:07;12.87;;;10.93;;
43702;SDS011;29304;56.146;40.396;2022-07-12T00:39:18;11.98;;;10.77;;
43702;SDS011;29304;56.146;40.396;2022-07-12T00:39:28;11.70;;;10.53;;
43702;SDS011;29304;56.146;40.396;2022-07-12T00:39:39;11.50;;;10.50;;
43702;SDS011;29304;56.146;40.396;2022-07-12T00:39:49;11.83;;;10.73;;
43702;SDS011;29304;56.146;40.396;2022-07-12T00:40:00;12.43;;;11.13;;
43702;SDS011;29304;56.146;40.396;2022-07-12T00:40:11;13.63;;;11.43;;
43702;SDS011;29304;56.146;40.396;2022-07-12T00:40:22;14.48;;;11.57;;
43702;SDS011;29304;56.146;40.396;2022-07-12T00:40:32;15.30;;;11.47;;
43702;SDS011;29304;56.146;40.396;2022-07-12T00:40:42;15.03;;;11.77;;
43702;SDS011;29304;56.146;40.396;2022-07-12T00:40:53;14.40;;;11.53;;
43702;SDS011;29304;56.146;40.396;2022-07-12T00:41:03;13.33;;;11.53;;
43702;SDS011;29304;56.146;40.396;2022-07-12T00:41:15;12.85;;;11.30;;
43702;SDS011;29304;56.146;40.396;2022-07-12T00:41:25;12.97;;;11.60;;
43702;SDS011;29304;56.146;40.396;2022-07-12T00:41:36;12.73;;;11.40;;
43702;SDS011;29304;56.146;40.396;2022-07-12T00:41:49;13.27;;;11.43;;
43702;SDS011;29304;56.146;40.396;2022-07-12T00:42:00;12.64;;;11.42;;
43702;SDS011;29304;56.146;40.396;2022-07-12T00:42:11;12.43;;;11.23;;
43702;SDS011;29304;56.146;40.396;2022-07-12T00:42:21;12.97;;;11.67;;
43702;SDS011;29304;56.146;40.396;2022-07-12T00:42:31;13.18;;;11.63;;
43702;SDS011;29304;56.146;40.396;2022-07-12T00:42:42;13.48;;;12.00;;
43702;SDS011;29304;56.146;40.396;2022-07-12T00:42:53;13.70;;;12.13;;
43702;SDS011;29304;56.146;40.396;2022-07-12T00:43:03;14.25;;;12.40;;
43702;SDS011;29304;56.146;40.396;2022-07-12T00:43:14;16.90;;;12.40;;
43702;SDS011;29304;56.146;40.396;2022-07-12T00:43:24;15.40;;;12.05;;
43702;SDS011;29304;56.146;40.396;2022-07-12T00:43:35;14.27;;;11.63;;
43702;SDS011;29304;56.146;40.396;2022-07-12T00:43:45;12.85;;;11.52;;
43702;SDS011;29304;56.146;40.396;2022-07-12T00:43:56;13.80;;;11.87;;
43702;SDS011;29304;56.146;40.396;2022-07-12T00:44:06;13.30;;;11.80;;
43702;SDS011;29304;56.146;40.396;2022-07-12T00:44:17;13.63;;;12.23;;
43702;SDS011;29304;56.146;40.396;2022-07-12T00:44:27;14.25;;;12.20;;
43702;SDS011;29304;56.146;40.396;2022-07-12T00:44:40;13.85;;;12.30;;
43702;SDS011;29304;56.146;40.396;2022-07-12T00:44:50;14.40;;;11.93;;
43702;SDS011;29304;56.146;40.396;2022-07-12T00:45:01;15.77;;;11.80;;
43702;SDS011;29304;56.146;40.396;2022-07-12T00:45:13;15.38;;;11.80;;
43702;SDS011;29304;56.146;40.396;2022-07-12T00:45:23;15.17;;;11.83;;
43702;SDS011;29304;56.146;40.396;2022-07-12T00:45:34;14.32;;;12.00;;
43702;SDS011;29304;56.146;40.396;2022-07-12T00:45:44;15.77;;;12.63;;
43702;SDS011;29304;56.146;40.396;2022-07-12T00:45:55;14.48;;;12.88;;
43702;SDS011;29304;56.146;40.396;2022-07-12T00:46:05;15.60;;;13.43;;
43702;SDS011;29304;56.146;40.396;2022-07-12T00:46:17;14.98;;;13.15;;
43702;SDS011;29304;56.146;40.396;2022-07-12T00:46:32;14.64;;;12.50;;
43702;SDS011;29304;56.146;40.396;2022-07-12T00:46:43;13.90;;;12.27;;
43702;SDS011;29304;56.146;40.396;2022-07-12T00:46:55;13.75;;;12.32;;
43702;SDS011;29304;56.146;40.396;2022-07-12T00:47:17;14.07;;;12.52;;
43702;SDS011;29304;56.146;40.396;2022-07-12T00:47:46;12.90;;;11.70;;
43702;SDS011;29304;56.146;40.396;2022-07-12T00:48:00;12.13;;;11.10;;
43702;SDS011;29304;56.146;40.396;2022-07-12T00:48:11;12.57;;;11.48;;
43702;SDS011;29304;56.146;40.396;2022-07-12T00:48:22;13.13;;;11.82;;
43702;SDS011;29304;56.146;40.396;2022-07-12T00:48:32;13.13;;;11.85;;
43702;SDS011;29304;56.146;40.396;2022-07-12T00:48:43;13.00;;;11.70;;
43702;SDS011;29304;56.146;40.396;2022-07-12T00:48:55;12.70;;;11.52;;
43702;SDS011;29304;56.146;40.396;2022-07-12T00:49:05;12.73;;;11.43;;
43702;SDS011;29304;56.146;40.396;2022-07-12T00:49:15;12.82;;;11.52;;
43702;SDS011;29304;56.146;40.396;2022-07-12T00:49:26;12.77;;;11.52;;
43702;SDS011;29304;56.146;40.396;2022-07-12T00:49:38;13.00;;;11.60;;
43702;SDS011;29304;56.146;40.396;2022-07-12T00:49:49;12.85;;;11.52;;
43702;SDS011;29304;56.146;40.396;2022-07-12T00:50:00;13.20;;;11.77;;
43702;SDS011;29304;56.146;40.396;2022-07-12T00:50:15;12.63;;;11.43;;
43702;SDS011;29304;56.146;40.396;2022-07-12T00:50:29;12.80;;;11.45;;
43702;SDS011;29304;56.146;40.396;2022-07-12T00:50:40;13.85;;;11.57;;
43702;SDS011;29304;56.146;40.396;2022-07-12T00:50:51;13.03;;;11.47;;
43702;SDS011;29304;56.146;40.396;2022-07-12T00:51:01;13.10;;;11.50;;
43702;SDS011;29304;56.146;40.396;2022-07-12T00:51:12;12.60;;;11.30;;
43702;SDS011;29304;56.146;40.396;2022-07-12T00:51:23;12.32;;;11.10;;
43702;SDS011;29304;56.146;40.396;2022-07-12T00:51:35;12.25;;;11.15;;
43702;SDS011;29304;56.146;40.396;2022-07-12T00:51:46;12.32;;;11.13;;
43702;SDS011;29304;56.146;40.396;2022-07-12T00:51:57;12.63;;;11.43;;
43702;SDS011;29304;56.146;40.396;2022-07-12T00:52:08;12.57;;;11.30;;
43702;SDS011;29304;56.146;40.396;2022-07-12T00:52:19;12.50;;;11.30;;
43702;SDS011;29304;56.146;40.396;2022-07-12T00:52:29;12.33;;;11.10;;
43702;SDS011;29304;56.146;40.396;2022-07-12T00:52:40;12.27;;;11.07;;
43702;SDS011;29304;56.146;40.396;2022-07-12T00:52:52;12.25;;;11.10;;
43702;SDS011;29304;56.146;40.396;2022-07-12T00:53:04;12.65;;;11.35;;
43702;SDS011;29304;56.146;40.396;2022-07-12T00:53:15;13.60;;;11.40;;
43702;SDS011;29304;56.146;40.396;2022-07-12T00:53:28;12.70;;;11.43;;
43702;SDS011;29304;56.146;40.396;2022-07-12T00:53:38;12.70;;;11.40;;
43702;SDS011;29304;56.146;40.396;2022-07-12T00:53:49;12.83;;;11.63;;
43702;SDS011;29304;56.146;40.396;2022-07-12T00:54:01;13.45;;;12.15;;
43702;SDS011;29304;56.146;40.396;2022-07-12T00:54:14;13.82;;;12.43;;
43702;SDS011;29304;56.146;40.396;2022-07-12T00:54:25;13.38;;;12.02;;
43702;SDS011;29304;56.146;40.396;2022-07-12T00:54:35;13.25;;;11.95;;
43702;SDS011;29304;56.146;40.396;2022-07-12T00:54:46;12.73;;;11.60;;
43702;SDS011;29304;56.146;40.396;2022-07-12T00:54:57;13.17;;;12.07;;
43702;SDS011;29304;56.146;40.396;2022-07-12T00:55:07;13.33;;;12.10;;
43702;SDS011;29304;56.146;40.396;2022-07-12T00:55:19;13.63;;;12.23;;
43702;SDS011;29304;56.146;40.396;2022-07-12T00:55:30;13.43;;;12.15;;
43702;SDS011;29304;56.146;40.396;2022-07-12T00:55:42;12.93;;;11.73;;
43702;SDS011;29304;56.146;40.396;2022-07-12T00:55:53;13.07;;;11.77;;
43702;SDS011;29304;56.146;40.396;2022-07-12T00:56:07;13.35;;;11.95;;
43702;SDS011;29304;56.146;40.396;2022-07-12T00:56:17;13.60;;;12.02;;
43702;SDS011;29304;56.146;40.396;2022-07-12T00:56:28;13.63;;;12.23;;
43702;SDS011;29304;56.146;40.396;2022-07-12T00:56:38;13.57;;;12.20;;
43702;SDS011;29304;56.146;40.396;2022-07-12T00:56:49;13.63;;;12.23;;
43702;SDS011;29304;56.146;40.396;2022-07-12T00:57:00;13.35;;;11.95;;
43702;SDS011;29304;56.146;40.396;2022-07-12T00:57:11;13.50;;;12.10;;
43702;SDS011;29304;56.146;40.396;2022-07-12T00:57:21;13.90;;;12.38;;
43702;SDS011;29304;56.146;40.396;2022-07-12T00:57:32;13.97;;;12.57;;
43702;SDS011;29304;56.146;40.396;2022-07-12T00:57:43;13.70;;;12.20;;
43702;SDS011;29304;56.146;40.396;2022-07-12T00:57:54;13.67;;;12.17;;
43702;SDS011;29304;56.146;40.396;2022-07-12T00:58:04;14.43;;;11.82;;
43702;SDS011;29304;56.146;40.396;2022-07-12T00:58:15;13.70;;;12.27;;
43702;SDS011;29304;56.146;40.396;2022-07-12T00:58:25;14.07;;;12.60;;
43702;SDS011;29304;56.146;40.396;2022-07-12T00:58:38;14.32;;;12.73;;
43702;SDS011;29304;56.146;40.396;2022-07-12T00:58:49;14.52;;;12.75;;
43702;SDS011;29304;56.146;40.396;2022-07-12T00:59:00;14.45;;;12.65;;
43702;SDS011;29304;56.146;40.396;2022-07-12T00:59:10;14.43;;;12.70;;
43702;SDS011;29304;56.146;40.396;2022-07-12T00:59:21;13.80;;;12.38;;
43702;SDS011;29304;56.146;40.396;2022-07-12T00:59:31;13.87;;;12.53;;
43702;SDS011;29304;56.146;40.396;2022-07-12T00:59:42;14.10;;;12.80;;
43702;SDS011;29304;56.146;40.396;2022-07-12T00:59:52;13.83;;;12.53;;
43702;SDS011;29304;56.146;40.396;2022-07-12T01:00:03;13.73;;;12.43;;
43702;SDS011;29304;56.146;40.396;2022-07-12T01:00:18;14.15;;;12.77;;
43702;SDS011;29304;56.146;40.396;2022-07-12T01:00:31;14.80;;;13.23;;
43702;SDS011;29304;56.146;40.396;2022-07-12T01:00:42;14.90;;;13.10;;
43702;SDS011;29304;56.146;40.396;2022-07-12T01:00:52;14.13;;;12.73;;
43702;SDS011;29304;56.146;40.396;2022-07-12T01:01:05;14.23;;;12.82;;
43702;SDS011;29304;56.146;40.396;2022-07-12T01:01:16;14.50;;;12.90;;
43702;SDS011;29304;56.146;40.396;2022-07-12T01:01:27;15.35;;;12.50;;
43702;SDS011;29304;56.146;40.396;2022-07-12T01:01:37;14.50;;;12.17;;
43702;SDS011;29304;56.146;40.396;2022-07-12T01:01:48;14.05;;;12.05;;
43702;SDS011;29304;56.146;40.396;2022-07-12T01:01:59;14.53;;;12.37;;
43702;SDS011;29304;56.146;40.396;2022-07-12T01:02:09;15.70;;;12.85;;
43702;SDS011;29304;56.146;40.396;2022-07-12T01:02:20;15.47;;;13.03;;
43702;SDS011;29304;56.146;40.396;2022-07-12T01:02:31;14.40;;;12.88;;
43702;SDS011;29304;56.146;40.396;2022-07-12T01:02:41;14.38;;;12.90;;
43702;SDS011;29304;56.146;40.396;2022-07-12T01:02:56;14.38;;;12.90;;